Time;durP1;ratioP1;P1;durP2;ratioP2;P2;SDS_P1;SDS_P2;PMS_P1;PMS_P2;Temp;Humidity;BMP_temperature;BMP_pressure;BME280_temperature;BME280_humidity;BME280_pressure;Samples;Min_cycle;Max_cycle;Signal;HPM_P1;HPM_P2
2022/04/20 00:00:30;;;;;;;;;20.67;15.67;;;;;;;;5037016;28;45330;-69
2022/04/20 00:02:55;;;;;;;;;19.00;17.00;;;;;;;;5037225;28;45319;-69
2022/04/20 00:05:20;;;;;;;;;16.33;15.33;;;;;;;;5036695;28;46536;-69
2022/04/20 00:07:46;;;;;;;;;16.33;15.33;;;;;;;;5036800;28;45294;-69
2022/04/20 00:10:11;;;;;;;;;20.33;16.67;;;;;;;;5037090;28;45429;-68
2022/04/20 00:12:36;;;;;;;;;17.00;17.00;;;;;;;;5036937;28;45394;-68
2022/04/20 00:15:02;;;;;;;;;16.00;16.00;;;;;;;;5036639;28;47404;-69
2022/04/20 00:17:27;;;;;;;;;16.00;14.33;;;;;;;;5036731;28;45231;-68
2022/04/20 00:19:52;;;;;;;;;16.00;15.67;;;;;;;;5036775;28;45225;-68
2022/04/20 00:22:18;;;;;;;;;17.67;16.67;;;;;;;;5037108;28;45212;-69
2022/04/20 00:24:43;;;;;;;;;19.33;14.33;;;;;;;;5036531;28;47442;-68
2022/04/20 00:27:08;;;;;;;;;17.33;14.67;;;;;;;;5037270;28;45248;-68
2022/04/20 00:29:35;;;;;;;;;15.00;14.00;;;;;;;;5040173;28;45197;-68
2022/04/20 00:32:00;;;;;;;;;13.33;12.67;;;;;;;;5040276;28;45378;-68
2022/04/20 00:34:25;;;;;;;;;17.33;14.67;;;;;;;;5040121;28;46438;-68
2022/04/20 00:36:51;;;;;;;;;13.33;12.33;;;;;;;;5040000;28;45522;-68
2022/04/20 00:39:16;;;;;;;;;18.00;15.00;;;;;;;;5040353;28;45497;-68
2022/04/20 00:41:42;;;;;;;;;15.67;13.00;;;;;;;;5039989;28;45373;-68
2022/04/20 00:44:07;;;;;;;;;14.33;14.00;;;;;;;;5039964;28;46095;-68
2022/04/20 00:46:33;;;;;;;;;14.00;14.00;;;;;;;;5040280;28;45407;-69
2022/04/20 00:48:58;;;;;;;;;22.00;14.67;;;;;;;;5040016;28;45311;-69
2022/04/20 00:51:24;;;;;;;;;14.00;12.33;;;;;;;;5039821;28;45270;-69
2022/04/20 00:53:49;;;;;;;;;15.33;12.67;;;;;;;;5039576;28;46500;-68
2022/04/20 00:56:14;;;;;;;;;15.00;12.33;;;;;;;;5039370;28;45542;-68
2022/04/20 00:58:40;;;;;;;;;15.00;12.00;;;;;;;;5033656;28;45342;-68
2022/04/20 01:01:06;;;;;;;;;9.67;9.67;;;;;;;;5039868;28;45717;-68
2022/04/20 01:03:31;;;;;;;;;12.33;12.33;;;;;;;;5039515;28;46253;-68
2022/04/20 01:05:56;;;;;;;;;12.33;11.33;;;;;;;;5039477;28;45180;-68
2022/04/20 01:08:22;;;;;;;;;14.00;11.33;;;;;;;;5040034;28;45351;-68
2022/04/20 01:10:47;;;;;;;;;13.67;12.67;;;;;;;;5039818;28;45211;-69
2022/04/20 01:13:13;;;;;;;;;14.00;12.67;;;;;;;;5039120;28;47440;-66
2022/04/20 01:15:39;;;;;;;;;13.33;11.00;;;;;;;;5039508;28;45298;-66
2022/04/20 01:18:11;;;;;;;;;13.33;13.33;;;;;;;;5039344;28;45444;-66
2022/04/20 01:20:36;;;;;;;;;12.00;12.00;;;;;;;;5039579;28;45221;-68
2022/04/20 01:23:01;;;;;;;;;12.67;10.00;;;;;;;;5038879;28;47578;-68
2022/04/20 01:25:27;;;;;;;;;15.00;13.67;;;;;;;;5039349;28;45484;-69
2022/04/20 01:27:52;;;;;;;;;14.00;13.33;;;;;;;;5039341;28;45271;-69
2022/04/20 01:30:17;;;;;;;;;13.67;11.00;;;;;;;;5039168;28;45407;-68
2022/04/20 01:32:43;;;;;;;;;12.00;11.67;;;;;;;;5039006;28;45437;-68
2022/04/20 01:35:09;;;;;;;;;15.33;12.00;;;;;;;;5039295;28;45416;-68
2022/04/20 01:37:34;;;;;;;;;11.00;11.00;;;;;;;;5038986;28;45377;-68
2022/04/20 01:39:59;;;;;;;;;11.00;10.67;;;;;;;;5039246;28;45440;-68
2022/04/20 01:42:25;;;;;;;;;9.00;9.00;;;;;;;;5038736;28;46458;-68
2022/04/20 01:44:50;;;;;;;;;11.33;9.67;;;;;;;;5038716;28;45286;-69
2022/04/20 01:47:15;;;;;;;;;12.33;10.33;;;;;;;;5039153;28;45510;-68
2022/04/20 01:49:41;;;;;;;;;10.33;10.33;;;;;;;;5039285;28;45400;-69
2022/04/20 01:52:06;;;;;;;;;14.33;9.33;;;;;;;;5038987;28;45408;-68
2022/04/20 01:54:32;;;;;;;;;11.00;10.33;;;;;;;;5038629;28;45381;-68
2022/04/20 01:56:57;;;;;;;;;11.33;11.00;;;;;;;;5038704;28;45317;-69
2022/04/20 01:59:22;;;;;;;;;15.00;10.00;;;;;;;;5039133;28;45296;-69
2022/04/20 02:04:31;;;;;;;;;10.67;10.33;;;;;;;;5038432;28;45381;-69
2022/04/20 02:06:56;;;;;;;;;10.33;10.33;;;;;;;;5038617;28;45793;-69
2022/04/20 02:09:21;;;;;;;;;12.33;8.33;;;;;;;;5038847;28;45253;-69
2022/04/20 02:11:47;;;;;;;;;9.67;9.67;;;;;;;;5038383;28;46173;-69
2022/04/20 02:14:12;;;;;;;;;14.33;10.67;;;;;;;;5038506;28;45311;-69
2022/04/20 02:16:37;;;;;;;;;9.67;9.33;;;;;;;;5038706;28;45364;-69
2022/04/20 02:19:03;;;;;;;;;14.00;12.67;;;;;;;;5038801;28;45406;-69
2022/04/20 02:21:28;;;;;;;;;15.00;11.00;;;;;;;;5038174;28;46998;-68
2022/04/20 02:23:53;;;;;;;;;9.00;8.33;;;;;;;;5038255;28;45380;-69
2022/04/20 02:26:19;;;;;;;;;11.67;9.67;;;;;;;;5038626;28;45393;-69
2022/04/20 02:28:44;;;;;;;;;9.67;9.33;;;;;;;;5038349;28;45440;-69
2022/04/20 02:31:09;;;;;;;;;11.33;10.33;;;;;;;;5038076;28;46489;-69
2022/04/20 02:33:34;;;;;;;;;9.67;9.67;;;;;;;;5038067;28;45536;-68
2022/04/20 02:36:00;;;;;;;;;11.67;10.33;;;;;;;;5038436;28;45306;-69
2022/04/20 02:38:27;;;;;;;;;11.67;11.00;;;;;;;;5038335;28;45247;-69
2022/04/20 02:40:52;;;;;;;;;11.67;10.33;;;;;;;;5037808;28;46222;-69
2022/04/20 02:43:17;;;;;;;;;12.33;10.33;;;;;;;;5037776;28;45448;-69
2022/04/20 02:45:42;;;;;;;;;16.00;12.33;;;;;;;;5038267;28;45370;-69
2022/04/20 02:48:09;;;;;;;;;14.33;11.33;;;;;;;;5038626;28;45378;-69
2022/04/20 02:50:34;;;;;;;;;10.00;10.00;;;;;;;;5037113;28;46694;-69
2022/04/20 02:52:59;;;;;;;;;10.00;10.00;;;;;;;;5037629;28;45436;-69
2022/04/20 02:55:25;;;;;;;;;17.00;10.67;;;;;;;;5037910;28;45321;-69
2022/04/20 02:57:50;;;;;;;;;12.67;12.00;;;;;;;;5037943;28;45370;-69
2022/04/20 03:00:16;;;;;;;;;11.67;10.00;;;;;;;;5037789;28;47218;-69
2022/04/20 03:02:41;;;;;;;;;6.00;5.00;;;;;;;;5037715;28;45461;-69
2022/04/20 03:05:07;;;;;;;;;11.33;10.67;;;;;;;;5037964;28;45463;-69
2022/04/20 03:07:32;;;;;;;;;11.67;11.00;;;;;;;;5038124;28;45413;-69
2022/04/20 03:09:57;;;;;;;;;10.67;8.33;;;;;;;;5037443;28;46472;-67
2022/04/20 03:12:23;;;;;;;;;13.00;12.00;;;;;;;;5037409;28;45455;-67
2022/04/20 03:14:48;;;;;;;;;15.67;11.00;;;;;;;;5037843;28;45403;-67
2022/04/20 03:17:13;;;;;;;;;9.67;9.00;;;;;;;;5037813;28;45430;-67
2022/04/20 03:19:38;;;;;;;;;6.00;6.00;;;;;;;;5037389;28;46149;-69
2022/04/20 03:22:04;;;;;;;;;9.33;9.33;;;;;;;;5037431;28;45423;-69
2022/04/20 03:24:29;;;;;;;;;10.67;10.67;;;;;;;;5037587;28;45373;-69
2022/04/20 03:26:54;;;;;;;;;11.00;10.33;;;;;;;;5037705;28;45156;-69
2022/04/20 03:29:19;;;;;;;;;14.00;11.00;;;;;;;;5037117;28;45487;-69
2022/04/20 03:31:45;;;;;;;;;13.33;10.33;;;;;;;;5037294;28;45292;-69
2022/04/20 03:34:11;;;;;;;;;11.33;9.67;;;;;;;;5037229;28;45195;-68
2022/04/20 03:36:36;;;;;;;;;13.00;11.00;;;;;;;;5037606;28;45507;-68
2022/04/20 03:39:02;;;;;;;;;11.67;10.00;;;;;;;;5037217;28;45918;-69
2022/04/20 03:41:27;;;;;;;;;13.00;11.00;;;;;;;;5037187;28;45437;-69
2022/04/20 03:43:53;;;;;;;;;11.33;10.00;;;;;;;;5036954;28;45316;-69
2022/04/20 03:46:18;;;;;;;;;13.33;10.33;;;;;;;;5037401;28;45358;-69
2022/04/20 03:48:45;;;;;;;;;12.00;9.00;;;;;;;;5037355;28;46292;-69
2022/04/20 03:51:10;;;;;;;;;11.33;10.00;;;;;;;;5036919;28;45330;-69
2022/04/20 03:53:36;;;;;;;;;10.33;10.33;;;;;;;;5037089;28;45317;-69
2022/04/20 03:56:01;;;;;;;;;12.33;10.00;;;;;;;;5037095;28;45368;-69
2022/04/20 03:58:26;;;;;;;;;10.00;8.33;;;;;;;;5036828;28;46128;-69
2022/04/20 04:00:51;;;;;;;;;14.00;9.67;;;;;;;;5037001;28;45413;-69
2022/04/20 04:03:17;;;;;;;;;11.00;11.00;;;;;;;;5039193;28;45316;-69
2022/04/20 04:05:43;;;;;;;;;13.00;10.33;;;;;;;;5023167;28;45358;-69
2022/04/20 04:08:08;;;;;;;;;12.67;11.67;;;;;;;;5040226;28;46100;-69
2022/04/20 04:10:34;;;;;;;;;11.33;10.00;;;;;;;;5039602;28;45364;-69
2022/04/20 04:13:00;;;;;;;;;13.67;11.00;;;;;;;;5024820;28;45484;-69
2022/04/20 04:15:25;;;;;;;;;13.00;11.33;;;;;;;;5029409;28;45222;-69
2022/04/20 04:17:54;;;;;;;;;13.00;10.00;;;;;;;;5020325;28;45457;-69
2022/04/20 04:20:21;;;;;;;;;11.33;10.00;;;;;;;;5020256;28;45323;-69
2022/04/20 04:22:46;;;;;;;;;12.00;10.00;;;;;;;;5020079;28;45521;-67
2022/04/20 04:25:11;;;;;;;;;16.00;11.00;;;;;;;;5020589;28;45740;-69
2022/04/20 04:27:36;;;;;;;;;16.33;10.67;;;;;;;;5020231;28;45480;-69
2022/04/20 04:30:02;;;;;;;;;11.00;11.00;;;;;;;;5020196;28;45545;-69
2022/04/20 04:32:28;;;;;;;;;10.33;10.00;;;;;;;;5020164;28;45386;-69
2022/04/20 04:34:53;;;;;;;;;15.00;11.00;;;;;;;;5020181;28;45333;-69
2022/04/20 04:37:18;;;;;;;;;11.67;11.67;;;;;;;;5020330;28;46316;-69
2022/04/20 04:39:43;;;;;;;;;11.00;11.00;;;;;;;;5019860;28;45303;-69
2022/04/20 04:42:09;;;;;;;;;13.33;10.00;;;;;;;;5020440;28;45366;-69
2022/04/20 04:44:34;;;;;;;;;15.67;12.00;;;;;;;;5020078;28;45339;-69
2022/04/20 04:49:44;;;;;;;;;13.67;12.67;;;;;;;;5019993;28;45324;-69
2022/04/20 04:52:11;;;;;;;;;13.67;11.00;;;;;;;;5020122;28;45338;-69
2022/04/20 04:54:37;;;;;;;;;14.67;9.33;;;;;;;;5019944;28;45391;-69
2022/04/20 04:57:02;;;;;;;;;10.00;8.33;;;;;;;;5019493;28;46267;-69
2022/04/20 04:59:27;;;;;;;;;9.00;7.00;;;;;;;;5019400;28;45481;-67
2022/04/20 05:01:52;;;;;;;;;10.00;8.67;;;;;;;;5019750;28;45327;-69
2022/04/20 05:04:19;;;;;;;;;13.33;12.00;;;;;;;;5018726;28;45488;-69
2022/04/20 05:06:44;;;;;;;;;11.00;10.67;;;;;;;;5019421;28;46575;-69
2022/04/20 05:09:09;;;;;;;;;13.67;11.67;;;;;;;;5019596;28;45330;-69
2022/04/20 05:11:35;;;;;;;;;11.33;10.33;;;;;;;;5019624;28;45740;-69
2022/04/20 05:14:00;;;;;;;;;10.33;10.00;;;;;;;;5019060;28;45367;-69
2022/04/20 05:16:25;;;;;;;;;11.33;10.00;;;;;;;;5019367;28;46038;-69
2022/04/20 05:18:51;;;;;;;;;14.00;13.00;;;;;;;;5019236;28;45308;-69
2022/04/20 05:21:16;;;;;;;;;10.00;10.00;;;;;;;;5019762;28;45363;-69
2022/04/20 05:23:42;;;;;;;;;11.00;9.33;;;;;;;;5019418;28;45468;-69
2022/04/20 05:26:07;;;;;;;;;15.67;12.33;;;;;;;;5019399;28;46990;-69
2022/04/20 05:28:32;;;;;;;;;12.67;11.00;;;;;;;;5019028;28;45364;-69
2022/04/20 05:30:57;;;;;;;;;12.00;11.00;;;;;;;;5019190;28;45393;-69
2022/04/20 05:33:22;;;;;;;;;15.33;10.33;;;;;;;;5019748;28;45461;-69
2022/04/20 05:35:48;;;;;;;;;10.00;10.00;;;;;;;;5019118;28;46337;-69
2022/04/20 05:43:41;;;;;;;;;15.67;12.67;;;;;;;;5019164;28;45538;-69
2022/04/20 05:46:06;;;;;;;;;15.33;12.67;;;;;;;;5018795;28;45932;-69
2022/04/20 05:48:32;;;;;;;;;16.67;12.00;;;;;;;;5019154;28;45425;-69
2022/04/20 05:50:57;;;;;;;;;13.33;12.00;;;;;;;;5019122;28;45385;-69
2022/04/20 05:53:22;;;;;;;;;14.33;14.00;;;;;;;;5019041;28;45389;-69
2022/04/20 05:55:48;;;;;;;;;17.00;14.33;;;;;;;;5018947;28;46224;-69
2022/04/20 05:58:13;;;;;;;;;13.67;10.00;;;;;;;;5018679;28;45322;-69
2022/04/20 06:00:38;;;;;;;;;11.00;11.00;;;;;;;;5018761;28;45355;-69
2022/04/20 06:03:04;;;;;;;;;14.00;11.33;;;;;;;;5018790;28;45310;-69
2022/04/20 06:05:29;;;;;;;;;12.00;11.00;;;;;;;;5018606;28;45588;-69
2022/04/20 06:07:55;;;;;;;;;12.33;11.33;;;;;;;;5018573;28;45391;-69
2022/04/20 06:10:20;;;;;;;;;12.00;10.00;;;;;;;;5017886;28;45464;-69
2022/04/20 06:12:46;;;;;;;;;9.33;9.33;;;;;;;;5018605;28;45275;-69
2022/04/20 06:15:11;;;;;;;;;11.33;7.00;;;;;;;;5024469;28;46530;-75
2022/04/20 06:17:36;;;;;;;;;17.00;13.33;;;;;;;;5050086;28;45306;-71
2022/04/20 06:20:02;;;;;;;;;7.67;7.00;;;;;;;;5038008;28;45414;-71
2022/04/20 06:22:27;;;;;;;;;14.00;10.33;;;;;;;;5038136;28;45302;-73
2022/04/20 06:24:53;;;;;;;;;15.00;13.00;;;;;;;;5036976;28;46269;-70
2022/04/20 06:27:18;;;;;;;;;15.00;11.67;;;;;;;;5037700;28;45235;-71
2022/04/20 06:29:43;;;;;;;;;10.67;10.67;;;;;;;;5037457;28;45378;-68
2022/04/20 06:32:09;;;;;;;;;12.67;12.00;;;;;;;;5038220;28;45373;-69
2022/04/20 06:34:34;;;;;;;;;8.00;8.00;;;;;;;;5037635;28;47069;-69
2022/04/20 06:37:00;;;;;;;;;10.67;9.00;;;;;;;;5038044;28;45426;-68
2022/04/20 06:39:25;;;;;;;;;15.00;10.00;;;;;;;;5038058;28;45473;-69
2022/04/20 06:41:51;;;;;;;;;10.00;10.00;;;;;;;;5020213;28;45771;-69
2022/04/20 06:44:16;;;;;;;;;12.33;12.00;;;;;;;;5038101;28;46389;-68
2022/04/20 06:46:42;;;;;;;;;11.00;9.33;;;;;;;;5037754;28;45355;-71
2022/04/20 06:49:07;;;;;;;;;11.33;9.33;;;;;;;;5040364;28;45339;-67
2022/04/20 06:58:31;;;;;;;;;5.67;4.33;;;;;;;;5038146;28;45432;-70
2022/04/20 06:59:45;;;;;;;;;10.33;7.00;;;;;;;;5037813;28;45272;-70
2022/04/20 07:02:11;;;;;;;;;9.67;9.67;;;;;;;;5037829;28;45388;-69
2022/04/20 07:04:36;;;;;;;;;16.00;11.67;;;;;;;;5037380;28;46411;-70
2022/04/20 07:07:01;;;;;;;;;18.00;11.33;;;;;;;;5053096;28;45356;-70
2022/04/20 07:09:26;;;;;;;;;14.67;12.00;;;;;;;;5038030;28;45353;-69
2022/04/20 07:11:51;;;;;;;;;12.33;9.33;;;;;;;;5038020;28;45327;-70
2022/04/20 07:14:17;;;;;;;;;13.00;12.00;;;;;;;;5037356;28;46340;-69
2022/04/20 07:16:42;;;;;;;;;11.67;9.00;;;;;;;;5037461;28;45318;-70
2022/04/20 07:19:07;;;;;;;;;13.67;8.33;;;;;;;;5037403;28;45516;-70
2022/04/20 07:21:32;;;;;;;;;11.33;11.33;;;;;;;;5037832;28;45342;-69
2022/04/20 07:23:58;;;;;;;;;12.33;10.33;;;;;;;;5037087;28;46587;-69
2022/04/20 07:26:26;;;;;;;;;13.67;12.33;;;;;;;;5037518;28;45311;-69
2022/04/20 07:28:51;;;;;;;;;9.33;9.33;;;;;;;;5037388;28;45351;-69
2022/04/20 07:31:16;;;;;;;;;12.67;12.67;;;;;;;;5037431;28;45357;-70
2022/04/20 07:33:41;;;;;;;;;10.33;8.33;;;;;;;;5037310;28;46506;-69
2022/04/20 07:36:06;;;;;;;;;13.00;12.67;;;;;;;;5036982;28;45218;-70
2022/04/20 07:38:32;;;;;;;;;10.67;8.00;;;;;;;;5037327;28;45322;-69
2022/04/20 07:40:57;;;;;;;;;8.67;7.33;;;;;;;;5037531;28;45358;-69
2022/04/20 07:43:22;;;;;;;;;9.00;9.00;;;;;;;;5036966;28;46546;-70
2022/04/20 07:45:47;;;;;;;;;9.33;9.33;;;;;;;;5036972;28;45233;-70
2022/04/20 07:48:12;;;;;;;;;8.00;7.00;;;;;;;;5037245;28;45262;-69
2022/04/20 07:50:38;;;;;;;;;14.33;10.00;;;;;;;;5037533;28;45321;-69
2022/04/20 07:53:05;;;;;;;;;12.33;9.67;;;;;;;;5036698;28;46949;-70
2022/04/20 07:55:31;;;;;;;;;7.33;7.33;;;;;;;;5032735;28;45746;-70
2022/04/20 07:57:57;;;;;;;;;7.67;7.33;;;;;;;;5036736;28;45305;-68
2022/04/20 08:00:23;;;;;;;;;8.67;5.00;;;;;;;;5036573;28;45516;-68
2022/04/20 08:02:49;;;;;;;;;8.00;6.67;;;;;;;;5036278;28;46209;-70
2022/04/20 08:05:16;;;;;;;;;6.67;5.00;;;;;;;;5036695;28;45457;-70
2022/04/20 08:07:42;;;;;;;;;7.33;6.33;;;;;;;;5036888;28;45508;-70
2022/04/20 08:10:08;;;;;;;;;7.33;7.00;;;;;;;;5036912;28;45197;-69
2022/04/20 08:12:44;;;;;;;;;9.33;7.00;;;;;;;;5036119;28;46494;-69
2022/04/20 08:15:09;;;;;;;;;6.33;6.33;;;;;;;;5036460;28;45515;-68
2022/04/20 08:17:35;;;;;;;;;8.00;6.67;;;;;;;;5036531;28;45365;-69
2022/04/20 08:20:01;;;;;;;;;6.67;6.00;;;;;;;;5036551;28;45545;-69
2022/04/20 08:22:26;;;;;;;;;10.33;7.00;;;;;;;;5036433;28;46607;-69
2022/04/20 08:24:53;;;;;;;;;6.00;6.00;;;;;;;;5036556;28;45364;-69
2022/04/20 08:27:20;;;;;;;;;5.67;5.67;;;;;;;;5036574;28;45412;-69
2022/04/20 08:29:46;;;;;;;;;5.00;3.67;;;;;;;;5036611;28;45366;-69
2022/04/20 08:32:11;;;;;;;;;5.67;4.67;;;;;;;;5036368;28;46127;-70
2022/04/20 08:34:37;;;;;;;;;7.33;5.33;;;;;;;;5036344;28;45315;-69
2022/04/20 08:37:02;;;;;;;;;4.00;4.00;;;;;;;;5036736;28;45363;-69
2022/04/20 08:39:27;;;;;;;;;9.00;6.00;;;;;;;;5036518;28;45448;-69
2022/04/20 08:41:53;;;;;;;;;5.33;5.00;;;;;;;;5036133;28;46154;-69
2022/04/20 08:44:19;;;;;;;;;6.33;6.33;;;;;;;;5036065;28;45597;-69
2022/04/20 08:46:45;;;;;;;;;7.33;6.33;;;;;;;;5036508;28;45438;-69
2022/04/20 08:49:10;;;;;;;;;5.33;5.33;;;;;;;;5038681;28;45303;-69
2022/04/20 08:54:19;;;;;;;;;7.00;5.00;;;;;;;;5059773;28;45223;-68
2022/04/20 08:59:29;;;;;;;;;4.00;4.00;;;;;;;;5060112;28;45342;-69
2022/04/20 09:01:57;;;;;;;;;9.00;4.00;;;;;;;;5059213;28;46251;-69
2022/04/20 09:04:23;;;;;;;;;10.67;5.00;;;;;;;;5059989;28;45357;-68
2022/04/20 09:06:49;;;;;;;;;5.00;5.00;;;;;;;;5059777;28;45351;-70
2022/04/20 09:09:14;;;;;;;;;6.00;4.33;;;;;;;;5059825;28;45313;-68
2022/04/20 09:11:40;;;;;;;;;5.00;5.00;;;;;;;;5059501;28;45430;-68
2022/04/20 09:14:13;;;;;;;;;5.00;5.00;;;;;;;;5059401;28;45296;-69
2022/04/20 09:16:39;;;;;;;;;8.67;6.00;;;;;;;;5059619;28;45519;-68
2022/04/20 09:19:05;;;;;;;;;6.00;5.00;;;;;;;;5059707;28;45379;-68
2022/04/20 09:21:31;;;;;;;;;5.67;5.33;;;;;;;;5059147;28;45374;-68
2022/04/20 09:24:06;;;;;;;;;4.67;4.67;;;;;;;;5059484;28;45443;-68
2022/04/20 09:26:31;;;;;;;;;9.33;6.00;;;;;;;;5059314;28;45453;-68
2022/04/20 09:29:07;;;;;;;;;6.33;5.00;;;;;;;;5047973;28;46186;-69
2022/04/20 09:31:46;;;;;;;;;5.33;5.33;;;;;;;;5038809;28;46199;-68
2022/04/20 09:35:15;;;;;;;;;5.67;4.33;;;;;;;;5038920;28;45424;-70
2022/04/20 09:37:16;;;;;;;;;7.33;6.67;;;;;;;;5031704;28;45280;-69
2022/04/20 09:39:46;;;;;;;;;6.00;3.00;;;;;;;;5039006;28;45317;-69
2022/04/20 09:42:11;;;;;;;;;5.33;5.33;;;;;;;;5038544;28;46989;-73
2022/04/20 09:44:40;;;;;;;;;7.00;6.67;;;;;;;;5038930;28;45250;-71
2022/04/20 09:49:58;;;;;;;;;9.33;6.33;;;;;;;;5038846;28;45767;-71
2022/04/20 09:52:24;;;;;;;;;7.00;7.00;;;;;;;;5038501;28;47367;-72
2022/04/20 09:54:53;;;;;;;;;7.33;5.67;;;;;;;;5038388;28;45330;-71
2022/04/20 09:57:19;;;;;;;;;6.67;6.67;;;;;;;;5038463;28;45466;-71
2022/04/20 09:59:53;;;;;;;;;7.67;7.00;;;;;;;;5054648;28;45335;-72
2022/04/20 10:02:19;;;;;;;;;9.00;7.00;;;;;;;;5058573;28;46377;-72
2022/04/20 10:04:45;;;;;;;;;8.00;8.00;;;;;;;;5058309;28;45430;-71
2022/04/20 10:07:10;;;;;;;;;8.33;6.00;;;;;;;;5058778;28;45344;-72
2022/04/20 10:09:35;;;;;;;;;5.00;5.00;;;;;;;;5058970;28;45313;-72
2022/04/20 10:12:01;;;;;;;;;5.00;5.00;;;;;;;;5058147;28;46585;-72
2022/04/20 10:17:15;;;;;;;;;4.33;4.33;;;;;;;;5058478;28;45312;-72
2022/04/20 10:19:41;;;;;;;;;4.00;4.00;;;;;;;;5058769;28;45282;-72
2022/04/20 10:22:07;;;;;;;;;8.00;4.00;;;;;;;;5058353;28;45361;-73
2022/04/20 10:24:37;;;;;;;;;5.33;5.33;;;;;;;;5058397;28;46469;-72
2022/04/20 10:27:06;;;;;;;;;4.33;4.33;;;;;;;;5058289;28;45339;-73
2022/04/20 10:29:49;;;;;;;;;6.33;4.33;;;;;;;;5041690;28;45369;-73
2022/04/20 10:32:22;;;;;;;;;4.33;4.33;;;;;;;;5038118;28;45285;-72
2022/04/20 10:34:50;;;;;;;;;6.00;5.00;;;;;;;;5037981;28;45406;-72
2022/04/20 10:37:17;;;;;;;;;6.00;5.00;;;;;;;;5038180;28;45318;-73
2022/04/20 10:39:42;;;;;;;;;7.33;6.67;;;;;;;;5020551;28;45322;-72
2022/04/20 10:42:11;;;;;;;;;4.33;4.33;;;;;;;;5037817;28;46876;-73
2022/04/20 10:44:51;;;;;;;;;5.00;5.00;;;;;;;;5038113;28;45391;-73
2022/04/20 10:47:20;;;;;;;;;5.00;5.00;;;;;;;;5037970;28;45382;-72
2022/04/20 10:49:46;;;;;;;;;10.67;6.67;;;;;;;;5020360;28;45343;-71
2022/04/20 10:52:24;;;;;;;;;4.00;3.00;;;;;;;;5037659;28;47346;-72
2022/04/20 10:54:51;;;;;;;;;4.00;4.00;;;;;;;;5037714;28;45224;-73
2022/04/20 10:57:17;;;;;;;;;5.00;4.00;;;;;;;;5038249;28;45292;-72
2022/04/20 10:59:42;;;;;;;;;4.67;3.67;;;;;;;;5038113;28;45338;-72
2022/04/20 11:02:09;;;;;;;;;6.00;6.00;;;;;;;;5037896;28;45337;-72
2022/04/20 11:04:36;;;;;;;;;3.67;3.67;;;;;;;;5019619;28;45389;-73
2022/04/20 11:07:01;;;;;;;;;4.33;4.00;;;;;;;;5037716;28;45373;-73
2022/04/20 11:09:41;;;;;;;;;7.67;5.00;;;;;;;;5038080;28;45209;-72
2022/04/20 11:20:57;;;;;;;;;5.67;5.67;;;;;;;;5037856;28;45281;-72
2022/04/20 11:23:42;;;;;;;;;8.00;6.67;;;;;;;;5037203;28;46635;-72
2022/04/20 11:26:10;;;;;;;;;7.00;4.00;;;;;;;;5037204;28;45197;-72
2022/04/20 11:28:39;;;;;;;;;7.00;5.00;;;;;;;;5037454;28;45353;-72
2022/04/20 11:31:04;;;;;;;;;6.00;6.00;;;;;;;;5037437;28;45454;-72
2022/04/20 11:33:32;;;;;;;;;6.67;6.00;;;;;;;;5037981;28;45448;-72
2022/04/20 11:35:57;;;;;;;;;7.00;5.00;;;;;;;;5037456;28;45299;-72
2022/04/20 11:38:34;;;;;;;;;7.33;7.33;;;;;;;;5037344;28;45254;-72
2022/04/20 11:41:00;;;;;;;;;4.33;4.33;;;;;;;;5037589;28;45656;-72
2022/04/20 11:43:28;;;;;;;;;9.00;7.67;;;;;;;;5036908;28;46203;-72
2022/04/20 11:45:53;;;;;;;;;4.00;4.00;;;;;;;;5037325;28;45454;-73
2022/04/20 11:48:20;;;;;;;;;7.67;6.67;;;;;;;;5037178;28;45312;-71
2022/04/20 11:50:53;;;;;;;;;9.67;7.00;;;;;;;;5037469;28;45494;-72
2022/04/20 11:53:19;;;;;;;;;6.00;6.00;;;;;;;;5036899;28;46244;-72
2022/04/20 11:55:47;;;;;;;;;8.00;7.00;;;;;;;;5036687;28;45265;-72
2022/04/20 11:58:13;;;;;;;;;5.33;5.00;;;;;;;;5037216;28;45267;-71
2022/04/20 12:00:38;;;;;;;;;11.00;10.00;;;;;;;;5037085;28;45214;-71
2022/04/20 12:03:03;;;;;;;;;7.00;7.00;;;;;;;;5018752;28;46037;-72
2022/04/20 12:05:28;;;;;;;;;8.00;8.00;;;;;;;;5036794;28;45303;-72
2022/04/20 12:07:54;;;;;;;;;8.00;6.33;;;;;;;;5021609;28;45255;-72
2022/04/20 12:10:19;;;;;;;;;9.00;7.00;;;;;;;;5037023;28;45501;-71
2022/04/20 12:12:45;;;;;;;;;8.33;5.33;;;;;;;;5036671;28;46347;-72
2022/04/20 12:15:10;;;;;;;;;9.33;8.33;;;;;;;;5036703;28;45357;-72
2022/04/20 12:17:36;;;;;;;;;10.00;9.00;;;;;;;;5037040;28;45370;-71
2022/04/20 12:20:03;;;;;;;;;8.00;7.67;;;;;;;;5036988;28;45267;-72
2022/04/20 12:22:28;;;;;;;;;4.00;3.33;;;;;;;;5036820;28;46049;-71
2022/04/20 12:25:23;;;;;;;;;9.00;7.00;;;;;;;;5039723;28;45310;-72
2022/04/20 12:27:52;;;;;;;;;5.00;5.00;;;;;;;;5000649;28;45374;-72
2022/04/20 12:30:34;;;;;;;;;6.33;6.00;;;;;;;;5018133;28;45343;-71
2022/04/20 12:33:04;;;;;;;;;6.00;6.00;;;;;;;;5017693;28;45492;-72
2022/04/20 12:35:29;;;;;;;;;10.33;8.00;;;;;;;;5017920;28;45319;-71
2022/04/20 12:37:55;;;;;;;;;6.33;4.67;;;;;;;;5017970;28;45402;-72
2022/04/20 12:40:23;;;;;;;;;8.00;7.00;;;;;;;;5018399;28;45363;-72
2022/04/20 12:42:57;;;;;;;;;7.00;6.33;;;;;;;;5017597;28;45503;-72
2022/04/20 12:45:22;;;;;;;;;9.00;5.00;;;;;;;;5017624;28;45314;-72
2022/04/20 12:47:47;;;;;;;;;7.67;4.00;;;;;;;;5017959;28;45556;-71
2022/04/20 12:50:14;;;;;;;;;12.67;8.67;;;;;;;;5018074;28;45530;-72
2022/04/20 12:52:47;;;;;;;;;8.33;8.00;;;;;;;;5000926;28;46527;-72
2022/04/20 12:55:16;;;;;;;;;11.00;8.67;;;;;;;;5017331;28;45498;-71
2022/04/20 13:03:41;;;;;;;;;10.33;9.00;;;;;;;;5020861;28;45367;-72
2022/04/20 13:06:10;;;;;;;;;5.33;5.33;;;;;;;;5039520;28;45306;-72
2022/04/20 13:08:35;;;;;;;;;11.67;7.33;;;;;;;;5039585;28;45282;-71
2022/04/20 13:11:01;;;;;;;;;8.00;7.33;;;;;;;;5039725;28;45578;-72
2022/04/20 13:13:27;;;;;;;;;6.00;6.00;;;;;;;;5038665;28;45495;-72
2022/04/20 13:15:53;;;;;;;;;8.00;6.67;;;;;;;;5021439;28;45713;-72
2022/04/20 13:18:18;;;;;;;;;8.33;7.00;;;;;;;;5039645;28;45364;-71
2022/04/20 13:20:43;;;;;;;;;7.67;7.00;;;;;;;;5039708;28;45384;-71
2022/04/20 13:23:09;;;;;;;;;8.33;6.33;;;;;;;;5039475;28;45310;-72
2022/04/20 13:28:18;;;;;;;;;9.67;8.33;;;;;;;;5039410;28;45404;-72
2022/04/20 13:30:46;;;;;;;;;11.33;10.00;;;;;;;;5039581;28;45367;-71
2022/04/20 13:33:12;;;;;;;;;9.00;8.00;;;;;;;;5038755;28;46263;-72
2022/04/20 13:35:38;;;;;;;;;11.00;10.33;;;;;;;;5038371;28;45231;-72
2022/04/20 13:38:06;;;;;;;;;11.00;9.33;;;;;;;;5038964;28;45275;-72
2022/04/20 13:40:31;;;;;;;;;13.33;10.00;;;;;;;;5039204;28;45448;-71
2022/04/20 13:42:57;;;;;;;;;8.67;8.67;;;;;;;;5038761;28;46572;-71
2022/04/20 13:45:22;;;;;;;;;12.00;12.00;;;;;;;;5037023;28;45468;-72
2022/04/20 13:47:47;;;;;;;;;12.67;9.00;;;;;;;;5038851;28;45330;-72
2022/04/20 13:50:13;;;;;;;;;15.67;13.00;;;;;;;;5039155;28;45345;-71
2022/04/20 13:52:38;;;;;;;;;13.67;12.00;;;;;;;;5038660;28;46208;-71
2022/04/20 13:55:07;;;;;;;;;13.33;12.67;;;;;;;;5038650;28;45388;-72
2022/04/20 13:57:33;;;;;;;;;10.67;10.00;;;;;;;;5039008;28;45279;-72
2022/04/20 13:59:59;;;;;;;;;11.00;9.33;;;;;;;;5039096;28;45160;-72
2022/04/20 14:02:24;;;;;;;;;14.00;12.67;;;;;;;;5038461;28;45413;-71
2022/04/20 14:04:50;;;;;;;;;12.00;9.33;;;;;;;;5038449;28;45223;-71
2022/04/20 14:07:16;;;;;;;;;15.00;14.00;;;;;;;;5038703;28;45715;-72
2022/04/20 14:09:41;;;;;;;;;13.67;13.00;;;;;;;;5038987;28;45232;-72
2022/04/20 14:12:07;;;;;;;;;13.67;13.00;;;;;;;;5038546;28;45520;-72
2022/04/20 14:14:33;;;;;;;;;13.00;11.67;;;;;;;;5038716;28;45500;-71
2022/04/20 14:16:58;;;;;;;;;15.33;12.67;;;;;;;;5038194;28;45432;-72
2022/04/20 14:19:24;;;;;;;;;15.33;11.00;;;;;;;;5038558;28;45323;-71
2022/04/20 14:21:50;;;;;;;;;12.33;12.33;;;;;;;;5038342;28;46982;-71
2022/04/20 14:24:16;;;;;;;;;12.00;10.00;;;;;;;;5038014;28;45459;-72
2022/04/20 14:32:12;;;;;;;;;14.00;11.33;;;;;;;;5037979;28;45770;-71
2022/04/20 14:34:38;;;;;;;;;14.33;12.33;;;;;;;;5037575;28;45318;-71
2022/04/20 14:37:04;;;;;;;;;14.67;12.00;;;;;;;;5038376;28;45216;-71
2022/04/20 14:39:29;;;;;;;;;12.33;10.00;;;;;;;;5038333;28;45439;-73
2022/04/20 14:41:55;;;;;;;;;13.00;11.67;;;;;;;;5037397;28;45317;-71
2022/04/20 14:44:20;;;;;;;;;14.33;11.33;;;;;;;;5037895;28;45200;-71
2022/04/20 14:46:46;;;;;;;;;16.00;13.00;;;;;;;;5037149;28;45293;-72
2022/04/20 14:49:12;;;;;;;;;14.00;11.33;;;;;;;;5037890;28;45172;-72
2022/04/20 14:51:38;;;;;;;;;14.00;13.33;;;;;;;;5037778;28;45686;-71
2022/04/20 14:54:04;;;;;;;;;13.00;11.00;;;;;;;;5037503;28;45393;-72
2022/04/20 14:56:29;;;;;;;;;13.33;13.33;;;;;;;;5037676;28;45414;-71
2022/04/20 14:58:54;;;;;;;;;12.67;11.33;;;;;;;;5037795;28;45646;-72
2022/04/20 15:01:19;;;;;;;;;5.00;4.67;;;;;;;;5037814;28;47279;-72
2022/04/20 15:03:45;;;;;;;;;14.00;12.67;;;;;;;;5037375;28;45940;-72
2022/04/20 15:06:10;;;;;;;;;12.67;12.00;;;;;;;;5037697;28;45393;-72
2022/04/20 15:08:35;;;;;;;;;14.33;10.00;;;;;;;;5037914;28;45360;-72
2022/04/20 15:11:01;;;;;;;;;10.33;10.33;;;;;;;;5037619;28;45416;-72
2022/04/20 15:13:26;;;;;;;;;11.33;11.33;;;;;;;;5037742;28;45434;-71